createdAt,value
2017-05-19T00:01:58.536Z,16.67
2017-05-19T00:04:24.876Z,16.50
2017-05-19T00:06:51.909Z,16.33
2017-05-19T00:09:18.314Z,17.03
2017-05-19T00:11:50.722Z,17.60
2017-05-19T00:14:20.748Z,16.66
2017-05-19T00:16:50.615Z,16.29
2017-05-19T00:19:17.314Z,16.13
2017-05-19T00:21:44.254Z,16.39
2017-05-19T00:24:10.595Z,16.00
2017-05-19T00:26:36.914Z,16.05
2017-05-19T00:29:03.485Z,15.81
2017-05-19T00:31:29.874Z,15.64
2017-05-19T00:33:56.214Z,15.82
2017-05-19T00:36:22.786Z,15.80
2017-05-19T00:38:49.786Z,15.66
2017-05-19T00:41:16.326Z,16.21
2017-05-19T00:43:43.148Z,15.89
2017-05-19T00:46:09.863Z,16.09
2017-05-19T00:48:36.880Z,16.25
2017-05-19T00:51:03.247Z,17.77
2017-05-19T00:53:29.629Z,17.44
2017-05-19T00:55:56.438Z,16.58
2017-05-19T00:58:23.090Z,16.45
2017-05-19T01:00:49.470Z,17.02
2017-05-19T01:03:16.380Z,16.61
2017-05-19T01:05:43.260Z,16.47
2017-05-19T01:08:09.612Z,16.82
2017-05-19T01:10:36.314Z,16.99
2017-05-19T01:13:02.821Z,16.66
2017-05-19T01:15:29.137Z,16.55
2017-05-19T01:17:55.463Z,16.05
2017-05-19T01:20:21.979Z,16.47
2017-05-19T01:22:48.610Z,16.11
2017-05-19T01:25:16.351Z,16.36
2017-05-19T01:27:42.682Z,15.83
2017-05-19T01:30:09.324Z,16.22
2017-05-19T01:32:35.719Z,16.29
2017-05-19T01:35:02.135Z,16.57
2017-05-19T01:37:28.575Z,16.29
2017-05-19T01:39:55.738Z,16.13
2017-05-19T01:42:22.254Z,16.19
2017-05-19T01:44:48.919Z,16.05
2017-05-19T01:47:15.453Z,16.72
2017-05-19T01:49:41.998Z,16.72
2017-05-19T01:52:08.439Z,16.28
2017-05-19T01:54:35.113Z,17.77
2017-05-19T01:57:01.446Z,16.81
2017-05-19T01:59:28.129Z,16.70
2017-05-19T02:01:54.458Z,17.18
2017-05-19T02:04:20.855Z,17.89
2017-05-19T02:06:47.256Z,17.35
2017-05-19T02:09:14.049Z,17.00
2017-05-19T02:11:40.689Z,16.71
2017-05-19T02:14:07.215Z,16.40
2017-05-19T02:16:33.751Z,16.45
2017-05-19T02:19:00.528Z,16.87
2017-05-19T02:21:26.859Z,16.75
2017-05-19T02:23:53.217Z,17.08
2017-05-19T02:26:19.573Z,17.34
2017-05-19T02:28:46.202Z,17.11
2017-05-19T02:31:12.585Z,17.15
2017-05-19T02:33:39.203Z,16.68
2017-05-19T02:36:05.849Z,16.76
2017-05-19T02:38:32.207Z,17.55
2017-05-19T02:40:58.546Z,17.37
2017-05-19T02:43:25.272Z,17.38
2017-05-19T02:45:51.603Z,16.85
2017-05-19T02:48:18.112Z,16.77
2017-05-19T02:50:45.195Z,16.65
2017-05-19T02:53:11.623Z,16.99
2017-05-19T02:55:38.785Z,17.22
2017-05-19T02:58:05.239Z,16.77
2017-05-19T03:00:31.588Z,16.74
2017-05-19T03:02:58.181Z,17.03
2017-05-19T03:05:24.533Z,16.98
2017-05-19T03:07:50.909Z,17.02
2017-05-19T03:10:17.282Z,16.94
2017-05-19T03:12:44.056Z,16.74
2017-05-19T03:15:10.464Z,16.51
2017-05-19T03:17:36.969Z,16.44
2017-05-19T03:20:03.540Z,16.71
2017-05-19T03:22:30.012Z,16.77
2017-05-19T03:24:56.347Z,16.85
2017-05-19T03:27:22.670Z,17.50
2017-05-19T03:29:49.494Z,17.58
2017-05-19T03:32:15.836Z,16.95
2017-05-19T03:34:42.180Z,16.91
2017-05-19T03:37:08.696Z,16.95
2017-05-19T03:39:35.194Z,16.82
2017-05-19T03:42:01.524Z,16.81
2017-05-19T03:44:28.663Z,16.92
2017-05-19T03:46:55.017Z,17.48
2017-05-19T03:49:21.515Z,17.62
2017-05-19T03:51:49.011Z,17.36
2017-05-19T03:54:15.533Z,16.65
2017-05-19T03:56:41.916Z,16.72
2017-05-19T03:59:08.240Z,17.66
2017-05-19T04:01:34.581Z,17.91
2017-05-19T04:04:00.931Z,17.64
2017-05-19T04:06:27.259Z,17.34
2017-05-19T04:08:53.575Z,16.96
2017-05-19T04:11:19.989Z,17.16
2017-05-19T04:13:46.323Z,16.72
2017-05-19T04:16:12.645Z,16.87
2017-05-19T04:18:38.970Z,16.95
2017-05-19T04:21:05.303Z,17.09
2017-05-19T04:23:31.654Z,17.15
2017-05-19T04:25:57.986Z,17.47
2017-05-19T04:28:24.351Z,17.42
2017-05-19T04:30:50.678Z,17.89
2017-05-19T04:33:17.022Z,17.51
2017-05-19T04:35:43.359Z,17.73
2017-05-19T04:38:09.740Z,17.66
2017-05-19T04:40:36.104Z,17.46
2017-05-19T04:43:02.444Z,17.51
2017-05-19T04:45:28.797Z,17.43
2017-05-19T04:47:55.125Z,17.32
2017-05-19T04:50:21.478Z,16.99
2017-05-19T04:52:47.809Z,17.27
2017-05-19T04:55:14.145Z,17.61
2017-05-19T04:57:40.497Z,17.79
2017-05-19T05:00:06.856Z,17.56
2017-05-19T05:02:33.204Z,17.70
2017-05-19T05:04:59.517Z,17.86
2017-05-19T05:07:25.868Z,17.72
2017-05-19T05:09:52.252Z,17.69
2017-05-19T05:12:18.587Z,17.82
2017-05-19T05:14:45.006Z,17.77
2017-05-19T05:17:11.332Z,17.88
2017-05-19T05:19:37.653Z,17.76
2017-05-19T05:22:03.988Z,17.72
2017-05-19T05:24:30.325Z,17.60
2017-05-19T05:26:56.694Z,17.59
2017-05-19T05:29:23.033Z,17.30
2017-05-19T05:31:49.439Z,17.26
2017-05-19T05:34:15.762Z,17.22
2017-05-19T05:36:42.079Z,17.80
2017-05-19T05:39:08.407Z,17.95
2017-05-19T05:41:34.757Z,17.92
2017-05-19T05:44:01.190Z,17.99
2017-05-19T05:46:27.525Z,17.99
2017-05-19T05:48:53.887Z,18.05
2017-05-19T05:51:20.316Z,18.06
2017-05-19T05:53:46.656Z,18.22
2017-05-19T05:56:12.983Z,17.87
2017-05-19T05:58:39.320Z,17.81
2017-05-19T06:01:05.645Z,17.98
2017-05-19T06:03:31.974Z,17.76
2017-05-19T06:05:58.319Z,17.68
2017-05-19T06:08:24.663Z,17.52
2017-05-19T06:10:50.985Z,17.80
2017-05-19T06:13:17.326Z,18.10
2017-05-19T06:15:43.677Z,18.05
2017-05-19T06:18:10.012Z,18.15
2017-05-19T06:20:36.350Z,18.33
2017-05-19T06:23:02.686Z,17.74
2017-05-19T06:25:29.049Z,17.99
2017-05-19T06:27:55.379Z,18.20
2017-05-19T06:30:21.730Z,17.86
2017-05-19T06:32:48.049Z,17.91
2017-05-19T06:35:14.386Z,18.10
2017-05-19T06:37:40.738Z,18.03
2017-05-19T06:40:07.085Z,17.48
2017-05-19T06:42:33.420Z,17.11
2017-05-19T06:44:59.760Z,17.69
2017-05-19T06:47:26.075Z,17.41
2017-05-19T06:49:52.424Z,17.52
2017-05-19T06:52:18.749Z,16.83
2017-05-19T06:54:45.099Z,16.53
2017-05-19T06:57:11.444Z,17.11
2017-05-19T06:59:37.780Z,17.03
2017-05-19T07:02:04.107Z,17.15
2017-05-19T07:04:30.421Z,17.23
2017-05-19T07:06:56.746Z,16.98
2017-05-19T07:09:23.095Z,16.81
2017-05-19T07:11:49.425Z,17.15
2017-05-19T07:14:15.754Z,16.34
2017-05-19T07:16:42.077Z,15.81
2017-05-19T07:19:08.420Z,16.48
2017-05-19T07:21:34.743Z,16.30
2017-05-19T07:24:01.111Z,17.35
2017-05-19T07:26:27.437Z,17.28
2017-05-19T07:28:53.777Z,17.25
2017-05-19T07:31:20.137Z,16.84
2017-05-19T07:33:46.471Z,16.66
2017-05-19T07:36:12.809Z,16.71
2017-05-19T07:38:39.139Z,17.32
2017-05-19T07:41:05.463Z,16.05
2017-05-19T07:43:31.791Z,16.31
2017-05-19T07:45:58.142Z,16.80
2017-05-19T07:48:24.476Z,16.89
2017-05-19T07:50:50.820Z,16.48
2017-05-19T07:53:17.150Z,16.17
2017-05-19T07:55:43.486Z,16.85
2017-05-19T07:58:09.920Z,16.58
2017-05-19T08:00:36.278Z,16.32
2017-05-19T08:03:02.620Z,15.82
2017-05-19T08:05:28.966Z,16.83
2017-05-19T08:07:55.330Z,16.95
2017-05-19T08:10:21.677Z,17.00
2017-05-19T08:12:48.014Z,17.02
2017-05-19T08:15:14.346Z,16.24
2017-05-19T08:17:40.667Z,16.48
2017-05-19T08:20:07.001Z,16.30
2017-05-19T08:22:33.502Z,16.04
2017-05-19T08:25:00.024Z,15.82
2017-05-19T08:27:26.362Z,15.29
2017-05-19T08:29:52.706Z,15.79
2017-05-19T08:32:19.038Z,16.67
2017-05-19T08:34:45.366Z,16.88
2017-05-19T08:37:11.696Z,16.90
2017-05-19T08:39:38.067Z,16.90
2017-05-19T08:42:04.453Z,17.07
2017-05-19T08:44:30.806Z,16.25
2017-05-19T08:46:57.143Z,15.81
2017-05-19T08:49:23.478Z,16.62
2017-05-19T08:51:49.820Z,16.40
2017-05-19T08:54:16.176Z,16.72
2017-05-19T08:56:42.505Z,16.42
2017-05-19T08:59:08.836Z,15.87
2017-05-19T09:01:35.190Z,16.35
2017-05-19T09:04:01.557Z,16.11
2017-05-19T09:06:27.951Z,16.06
2017-05-19T09:08:54.289Z,16.45
2017-05-19T09:11:20.661Z,16.10
2017-05-19T09:13:47.002Z,15.61
2017-05-19T09:16:13.870Z,15.80
2017-05-19T09:18:40.219Z,15.97
2017-05-19T09:21:06.584Z,16.66
2017-05-19T09:23:32.970Z,16.78
2017-05-19T09:25:59.373Z,16.83
2017-05-19T09:28:25.694Z,16.38
2017-05-19T09:30:52.006Z,16.98
2017-05-19T09:33:18.347Z,16.71
2017-05-19T09:35:44.666Z,15.77
2017-05-19T09:38:10.998Z,16.65
2017-05-19T09:40:37.379Z,16.71
2017-05-19T09:43:03.783Z,16.46
2017-05-19T09:45:30.149Z,16.19
2017-05-19T09:47:56.498Z,16.57
2017-05-19T09:50:22.824Z,17.20
2017-05-19T09:52:49.202Z,16.82
2017-05-19T09:55:15.522Z,15.80
2017-05-19T09:57:41.871Z,16.30
2017-05-19T10:00:08.233Z,16.30
2017-05-19T10:02:35.070Z,16.41
2017-05-19T10:05:01.431Z,16.23
2017-05-19T10:07:27.776Z,16.98
2017-05-19T10:09:54.157Z,16.59
2017-05-19T10:12:20.495Z,16.63
2017-05-19T10:14:46.880Z,16.92
2017-05-19T10:17:13.237Z,15.87
2017-05-19T10:19:39.556Z,16.43
2017-05-19T10:22:05.901Z,16.21
2017-05-19T10:24:32.251Z,16.25
2017-05-19T10:26:58.586Z,16.42
2017-05-19T10:29:24.958Z,16.61
2017-05-19T10:31:51.306Z,16.07
2017-05-19T10:34:17.631Z,16.88
2017-05-19T10:36:43.981Z,16.90
2017-05-19T10:39:10.476Z,15.72
2017-05-19T10:41:36.836Z,16.43
2017-05-19T10:44:03.171Z,15.88
2017-05-19T10:46:29.501Z,16.32
2017-05-19T10:48:55.882Z,16.44
2017-05-19T10:51:22.248Z,16.60
2017-05-19T10:53:48.567Z,16.36
2017-05-19T10:56:14.923Z,16.02
2017-05-19T10:58:41.281Z,16.55
2017-05-19T11:01:07.620Z,16.27
2017-05-19T11:03:33.943Z,15.76
2017-05-19T11:06:00.300Z,15.72
2017-05-19T11:08:26.685Z,15.51
2017-05-19T11:10:53.026Z,15.96
2017-05-19T11:13:19.372Z,16.20
2017-05-19T11:15:45.810Z,16.36
2017-05-19T11:18:12.181Z,15.92
2017-05-19T11:20:38.494Z,16.67
2017-05-19T11:23:04.822Z,16.13
2017-05-19T11:25:31.184Z,16.15
2017-05-19T11:27:57.512Z,15.57
2017-05-19T11:30:23.857Z,15.47
2017-05-19T11:32:50.214Z,15.89
2017-05-19T11:35:16.576Z,15.47
2017-05-19T11:37:42.907Z,15.75
2017-05-19T11:40:09.269Z,16.36
2017-05-19T11:42:35.598Z,16.44
2017-05-19T11:45:02.018Z,15.70
2017-05-19T11:47:28.367Z,16.48
2017-05-19T11:49:54.712Z,16.44
2017-05-19T11:52:21.078Z,16.00
2017-05-19T11:54:47.447Z,16.35
2017-05-19T11:57:13.797Z,16.14
2017-05-19T11:59:40.144Z,16.09
2017-05-19T12:02:06.484Z,15.12
2017-05-19T12:04:33.597Z,15.76
2017-05-19T12:06:59.926Z,15.72
2017-05-19T12:09:26.312Z,15.87
2017-05-19T12:11:52.662Z,15.58
2017-05-19T12:14:18.993Z,15.57
2017-05-19T12:16:45.351Z,15.89
2017-05-19T12:19:11.674Z,16.24
2017-05-19T12:21:38.039Z,15.83
2017-05-19T12:24:04.404Z,15.91
2017-05-19T12:26:30.732Z,15.86
2017-05-19T12:28:57.068Z,15.83
2017-05-19T12:31:23.398Z,15.99
2017-05-19T12:33:49.714Z,15.77
2017-05-19T12:36:16.045Z,16.00
2017-05-19T12:38:42.406Z,16.11
2017-05-19T12:41:08.737Z,15.89
2017-05-19T12:43:35.043Z,15.90
2017-05-19T12:46:01.379Z,15.65
2017-05-19T12:48:27.732Z,15.40
2017-05-19T12:50:54.070Z,15.84
2017-05-19T12:53:20.402Z,15.82
2017-05-19T12:55:46.785Z,16.04
2017-05-19T12:58:13.143Z,15.34
2017-05-19T13:00:39.517Z,16.41
2017-05-19T13:03:05.870Z,15.72
2017-05-19T13:05:32.203Z,15.96
2017-05-19T13:07:58.654Z,16.23
2017-05-19T13:10:24.962Z,15.94
2017-05-19T13:12:51.327Z,16.09
2017-05-19T13:15:17.658Z,15.69
2017-05-19T13:17:43.995Z,14.81
2017-05-19T13:20:10.325Z,15.75
2017-05-19T13:22:36.676Z,15.15
2017-05-19T13:25:03.034Z,14.49
2017-05-19T13:27:29.362Z,14.43
2017-05-19T13:29:55.733Z,14.30
2017-05-19T13:32:22.082Z,15.49
2017-05-19T13:34:48.458Z,15.13
2017-05-19T13:37:14.825Z,15.21
2017-05-19T13:39:41.176Z,14.77
2017-05-19T13:42:07.533Z,14.50
2017-05-19T13:44:33.916Z,15.21
2017-05-19T13:47:00.292Z,14.35
2017-05-19T13:49:26.642Z,14.99
2017-05-19T13:51:53.533Z,14.69
2017-05-19T13:54:19.956Z,14.35
2017-05-19T13:56:46.311Z,15.56
2017-05-19T13:59:12.656Z,14.65
2017-05-19T14:01:39.006Z,14.59
2017-05-19T14:04:05.382Z,14.77
2017-05-19T14:06:31.750Z,14.71
2017-05-19T14:08:58.095Z,14.99
2017-05-19T14:11:24.486Z,14.86
2017-05-19T14:13:52.125Z,14.92
2017-05-19T14:16:18.477Z,15.03
2017-05-19T14:18:44.865Z,15.06
2017-05-19T14:21:11.241Z,14.89
2017-05-19T14:23:37.562Z,15.20
2017-05-19T14:26:03.907Z,14.50
2017-05-19T14:28:30.255Z,14.46
2017-05-19T14:30:56.621Z,15.33
2017-05-19T14:33:22.954Z,15.02
2017-05-19T14:35:49.303Z,14.70
2017-05-19T14:38:15.683Z,14.54
2017-05-19T14:40:42.132Z,14.33
2017-05-19T14:43:08.462Z,14.73
2017-05-19T14:45:34.804Z,14.53
2017-05-19T14:48:01.124Z,14.81
2017-05-19T14:50:27.485Z,15.34
2017-05-19T14:52:53.846Z,15.01
2017-05-19T14:55:20.202Z,14.41
2017-05-19T14:57:46.539Z,15.07
2017-05-19T15:00:12.922Z,14.67
2017-05-19T15:02:39.287Z,15.36
2017-05-19T15:05:05.634Z,15.38
2017-05-19T15:07:32.361Z,15.29
2017-05-19T15:09:58.678Z,15.43
2017-05-19T15:12:25.020Z,15.21
2017-05-19T15:14:51.369Z,14.26
2017-05-19T15:17:17.730Z,14.75
2017-05-19T15:19:44.106Z,14.91
2017-05-19T15:22:10.446Z,14.40
2017-05-19T15:24:36.783Z,15.13
2017-05-19T15:27:03.113Z,14.47
2017-05-19T15:29:29.436Z,15.52
2017-05-19T15:31:55.755Z,14.91
2017-05-19T15:34:22.095Z,14.64
2017-05-19T15:36:48.415Z,14.70
2017-05-19T15:39:14.735Z,15.50
2017-05-19T15:41:41.063Z,15.54
2017-05-19T15:44:07.626Z,15.21
2017-05-19T15:46:34.597Z,15.43
2017-05-19T15:49:00.941Z,14.60
2017-05-19T15:51:27.297Z,14.74
2017-05-19T15:53:53.630Z,14.86
2017-05-19T15:56:19.997Z,14.88
2017-05-19T15:58:46.337Z,14.27
2017-05-19T16:01:12.680Z,15.56
2017-05-19T16:03:39.015Z,15.23
2017-05-19T16:06:05.371Z,14.99
2017-05-19T16:08:32.117Z,15.22
2017-05-19T16:10:58.470Z,14.51
2017-05-19T16:13:24.776Z,15.21
2017-05-19T16:15:51.170Z,15.49
2017-05-19T16:18:17.533Z,15.43
2017-05-19T16:20:43.901Z,15.35
2017-05-19T16:23:10.272Z,15.46
2017-05-19T16:25:36.609Z,15.21
2017-05-19T16:28:02.930Z,15.14
2017-05-19T16:30:29.246Z,14.70
2017-05-19T16:32:55.577Z,14.77
2017-05-19T16:35:21.919Z,15.18
2017-05-19T16:37:48.253Z,15.53
2017-05-19T16:40:20.302Z,15.47
2017-05-19T16:42:46.654Z,15.24
2017-05-19T16:45:12.979Z,15.11
2017-05-19T16:47:39.350Z,15.31
2017-05-19T16:50:05.675Z,14.68
2017-05-19T16:52:32.026Z,15.30
2017-05-19T16:54:58.383Z,14.86
2017-05-19T16:57:24.740Z,14.58
2017-05-19T16:59:51.077Z,15.14
2017-05-19T17:02:17.437Z,14.72
2017-05-19T17:04:43.796Z,15.49
2017-05-19T17:07:10.139Z,15.09
2017-05-19T17:09:36.512Z,14.80
2017-05-19T17:12:02.864Z,14.88
2017-05-19T17:14:29.184Z,14.78
2017-05-19T17:16:55.536Z,14.97
2017-05-19T17:19:24.854Z,15.10
2017-05-19T17:21:51.237Z,15.58
2017-05-19T17:24:17.574Z,15.20
2017-05-19T17:26:43.903Z,15.37
2017-05-19T17:29:10.245Z,15.14
2017-05-19T17:31:36.578Z,15.41
2017-05-19T17:34:02.934Z,15.28
2017-05-19T17:36:29.254Z,14.46
2017-05-19T17:38:55.584Z,14.80
2017-05-19T17:41:22.069Z,15.38
2017-05-19T17:43:48.412Z,15.03
2017-05-19T17:46:14.738Z,14.70
2017-05-19T17:48:41.075Z,15.37
2017-05-19T17:51:07.425Z,15.25
2017-05-19T17:53:33.794Z,15.39
2017-05-19T17:56:00.123Z,15.29
2017-05-19T17:58:26.487Z,14.73
2017-05-19T18:00:52.828Z,14.16
2017-05-19T18:03:19.185Z,14.07
2017-05-19T18:05:45.519Z,15.24
2017-05-19T18:08:11.839Z,14.80
2017-05-19T18:10:38.200Z,14.76
2017-05-19T18:13:04.540Z,14.11
2017-05-19T18:15:30.919Z,13.44
2017-05-19T18:17:57.253Z,14.85
2017-05-19T18:20:23.586Z,15.13
2017-05-19T18:22:49.907Z,15.31
2017-05-19T18:25:16.229Z,14.88
2017-05-19T18:27:42.605Z,14.47
2017-05-19T18:30:08.934Z,14.74
2017-05-19T18:32:35.279Z,14.86
2017-05-19T18:35:01.646Z,14.81
2017-05-19T18:37:27.991Z,14.23
2017-05-19T18:39:54.369Z,14.34
2017-05-19T18:42:20.733Z,14.84
2017-05-19T18:44:47.146Z,15.05
2017-05-19T18:47:13.653Z,15.12
2017-05-19T18:49:39.999Z,14.68
2017-05-19T18:52:06.376Z,14.36
2017-05-19T18:54:32.730Z,14.11
2017-05-19T18:56:59.093Z,13.49
2017-05-19T18:59:25.443Z,13.79
2017-05-19T19:01:51.798Z,14.46
2017-05-19T19:04:18.207Z,14.16
2017-05-19T19:06:44.539Z,13.94
2017-05-19T19:09:10.942Z,13.98
2017-05-19T19:11:37.403Z,14.71
2017-05-19T19:14:03.770Z,14.14
2017-05-19T19:16:30.249Z,13.58
2017-05-19T19:18:56.565Z,14.45
2017-05-19T19:21:22.914Z,14.58
2017-05-19T19:23:49.250Z,14.70
2017-05-19T19:26:15.601Z,13.46
2017-05-19T19:28:41.934Z,14.09
2017-05-19T19:31:08.322Z,13.54
2017-05-19T19:33:34.685Z,13.32
2017-05-19T19:36:01.029Z,13.04
2017-05-19T19:38:27.395Z,13.44
2017-05-19T19:40:53.767Z,13.91
2017-05-19T19:43:20.105Z,13.59
2017-05-19T19:45:46.455Z,13.90
2017-05-19T19:48:12.864Z,13.61
2017-05-19T19:50:39.211Z,13.94
2017-05-19T19:53:05.568Z,14.15
2017-05-19T19:55:31.936Z,13.39
2017-05-19T19:57:58.280Z,14.42
2017-05-19T20:00:24.603Z,14.63
2017-05-19T20:02:51.010Z,14.65
2017-05-19T20:05:17.591Z,14.72
2017-05-19T20:07:43.916Z,14.16
2017-05-19T20:10:10.234Z,14.40
2017-05-19T20:12:36.591Z,14.25
2017-05-19T20:15:02.966Z,14.25
2017-05-19T20:17:29.365Z,13.78
2017-05-19T20:30:43.224Z,13.65
2017-05-19T20:33:09.602Z,14.28
2017-05-19T20:35:35.959Z,13.90
2017-05-19T20:38:02.302Z,14.31
2017-05-19T20:40:28.654Z,14.13
2017-05-19T20:42:55.009Z,13.60
2017-05-19T20:45:21.347Z,14.42
2017-05-19T20:47:47.709Z,14.46
2017-05-19T20:50:14.057Z,14.63
2017-05-19T20:52:40.420Z,14.59
2017-05-19T20:55:06.829Z,14.19
2017-05-19T20:57:33.188Z,14.21
2017-05-19T20:59:59.539Z,14.54
2017-05-19T21:02:25.949Z,14.27
2017-05-19T21:04:52.281Z,13.52
2017-05-19T21:07:18.626Z,13.27
2017-05-19T21:09:44.969Z,13.81
2017-05-19T21:12:11.350Z,14.09
2017-05-19T21:14:37.694Z,14.35
2017-05-19T21:17:04.062Z,13.89
2017-05-19T21:19:30.411Z,13.55
2017-05-19T21:21:56.721Z,13.96
2017-05-19T21:24:23.075Z,14.05
2017-05-19T21:26:49.422Z,13.62
2017-05-19T21:29:15.781Z,13.14
2017-05-19T21:31:42.127Z,13.27
2017-05-19T21:34:08.451Z,14.36
2017-05-19T21:36:34.812Z,14.36
2017-05-19T21:39:01.169Z,14.02
2017-05-19T21:41:27.545Z,14.31
2017-05-19T21:43:53.921Z,14.17
2017-05-19T21:46:20.275Z,13.78
2017-05-19T21:48:46.627Z,14.07
2017-05-19T21:51:12.975Z,14.04
2017-05-19T21:53:39.311Z,14.03
2017-05-19T21:56:05.637Z,14.03
2017-05-19T21:58:31.969Z,13.90
2017-05-19T22:00:58.299Z,14.05
2017-05-19T22:03:24.638Z,14.18
2017-05-19T22:05:50.999Z,13.92
2017-05-19T22:08:17.372Z,14.24
2017-05-19T22:10:43.695Z,14.26
2017-05-19T22:13:10.021Z,14.31
2017-05-19T22:15:36.375Z,14.08
2017-05-19T22:18:02.722Z,13.97
2017-05-19T22:20:29.054Z,13.98
2017-05-19T22:22:55.387Z,13.95
2017-05-19T22:25:21.703Z,13.65
2017-05-19T22:27:48.087Z,14.10
2017-05-19T22:30:14.432Z,14.19
2017-05-19T22:32:40.774Z,13.95
2017-05-19T22:35:07.156Z,14.11
2017-05-19T22:37:33.519Z,14.09
2017-05-19T22:39:59.857Z,14.15
2017-05-19T22:42:26.182Z,14.09
2017-05-19T22:44:52.527Z,14.07
2017-05-19T22:47:18.886Z,14.04
2017-05-19T22:49:45.219Z,13.61
2017-05-19T22:52:11.552Z,13.94
2017-05-19T22:54:37.907Z,14.06
2017-05-19T22:57:04.255Z,14.07
2017-05-19T22:59:30.596Z,14.14
2017-05-19T23:01:56.921Z,13.17
2017-05-19T23:04:23.255Z,13.93
2017-05-19T23:06:49.625Z,13.84
2017-05-19T23:09:15.956Z,14.01
2017-05-19T23:11:42.285Z,13.93
2017-05-19T23:14:09.571Z,13.90
2017-05-19T23:16:35.910Z,13.88
2017-05-19T23:19:02.253Z,13.43
2017-05-19T23:21:28.571Z,13.63
2017-05-19T23:23:54.951Z,13.63
2017-05-19T23:26:21.678Z,13.37
2017-05-19T23:28:48.045Z,13.88
2017-05-19T23:31:14.354Z,13.87
2017-05-19T23:33:40.667Z,13.58
2017-05-19T23:36:07.034Z,13.59
2017-05-19T23:38:33.377Z,13.95
2017-05-19T23:40:59.746Z,13.92
2017-05-19T23:43:26.081Z,13.39
2017-05-19T23:45:52.406Z,13.77
2017-05-19T23:48:18.874Z,13.78
2017-05-19T23:50:46.543Z,13.52
2017-05-19T23:53:12.842Z,13.82
2017-05-19T23:55:39.193Z,14.00
2017-05-19T23:58:05.540Z,14.00
